createdAt,value
2018-05-10T00:00:08.409Z,6.30
2018-05-10T00:01:08.391Z,6.20
2018-05-10T00:02:08.383Z,5.80
2018-05-10T00:03:08.359Z,6.40
2018-05-10T00:04:08.341Z,6.70
2018-05-10T00:05:08.325Z,5.90
2018-05-10T00:06:08.307Z,6.80
2018-05-10T00:07:08.301Z,5.90
2018-05-10T00:08:08.273Z,5.90
2018-05-10T00:09:08.254Z,5.70
2018-05-10T00:10:08.239Z,6.00
2018-05-10T00:11:08.226Z,6.00
2018-05-10T00:12:08.220Z,6.30
2018-05-10T00:13:08.192Z,6.50
2018-05-10T00:14:08.247Z,6.10
2018-05-10T00:15:08.157Z,6.20
2018-05-10T00:16:08.138Z,6.30
2018-05-10T00:17:08.120Z,6.20
2018-05-10T00:18:08.127Z,6.00
2018-05-10T00:19:08.088Z,6.10
2018-05-10T00:20:08.069Z,6.10
2018-05-10T00:21:08.054Z,6.30
2018-05-10T00:22:08.044Z,6.70
2018-05-10T00:23:08.020Z,6.20
2018-05-10T00:24:08.016Z,6.60
2018-05-10T00:25:07.985Z,7.00
2018-05-10T00:26:07.969Z,6.90
2018-05-10T00:27:07.952Z,6.50
2018-05-10T00:28:07.944Z,6.30
2018-05-10T00:29:07.926Z,7.30
2018-05-10T00:30:07.899Z,6.90
2018-05-10T00:31:07.884Z,6.40
2018-05-10T00:32:07.869Z,6.80
2018-05-10T00:33:07.850Z,6.60
2018-05-10T00:34:08.088Z,6.70
2018-05-10T00:35:07.815Z,6.50
2018-05-10T00:36:07.799Z,6.40
2018-05-10T00:37:07.780Z,7.30
2018-05-10T00:38:07.762Z,7.30
2018-05-10T00:39:07.745Z,6.60
2018-05-10T00:40:07.747Z,6.90
2018-05-10T00:41:07.711Z,7.30
2018-05-10T00:42:07.696Z,7.40
2018-05-10T00:43:07.678Z,6.80
2018-05-10T00:44:07.660Z,7.00
2018-05-10T00:45:07.644Z,7.50
2018-05-10T00:46:07.720Z,7.50
2018-05-10T00:47:07.609Z,9.30
2018-05-10T00:48:07.589Z,8.60
2018-05-10T00:49:07.575Z,9.30
2018-05-10T00:50:07.556Z,8.10
2018-05-10T00:51:07.638Z,7.50
2018-05-10T00:52:07.525Z,7.60
2018-05-10T00:53:07.506Z,7.40
2018-05-10T00:54:07.486Z,7.30
2018-05-10T00:55:07.471Z,7.40
2018-05-10T00:56:07.463Z,7.10
2018-05-10T00:57:07.437Z,8.10
2018-05-10T00:58:07.420Z,7.20
2018-05-10T00:59:07.402Z,7.70
2018-05-10T01:00:07.385Z,7.50
2018-05-10T01:01:07.397Z,7.90
2018-05-10T01:02:07.353Z,8.60
2018-05-10T01:03:07.333Z,8.70
2018-05-10T01:04:07.317Z,8.90
2018-05-10T01:05:07.297Z,9.30
2018-05-10T01:06:07.284Z,8.70
2018-05-10T01:07:07.282Z,8.70
2018-05-10T01:08:07.249Z,9.30
2018-05-10T01:09:07.227Z,8.90
2018-05-10T01:10:07.211Z,10.70
2018-05-10T01:11:07.192Z,10.00
2018-05-10T01:12:07.177Z,9.00
2018-05-10T01:13:07.170Z,9.20
2018-05-10T01:14:07.141Z,10.20
2018-05-10T01:15:07.124Z,10.80
2018-05-10T01:16:07.106Z,11.10
2018-05-10T01:17:07.089Z,10.80
2018-05-10T01:18:07.084Z,11.00
2018-05-10T01:19:07.054Z,11.90
2018-05-10T01:20:07.037Z,11.80
2018-05-10T01:21:07.017Z,12.70
2018-05-10T01:22:07.001Z,12.90
2018-05-10T01:23:07.257Z,12.70
2018-05-10T01:24:06.967Z,13.50
2018-05-10T01:25:06.948Z,14.90
2018-05-10T01:26:06.934Z,14.70
2018-05-10T01:27:06.914Z,14.50
2018-05-10T01:28:06.897Z,15.70
2018-05-10T01:29:06.893Z,14.70
2018-05-10T01:30:06.862Z,16.20
2018-05-10T01:31:06.844Z,15.50
2018-05-10T01:32:06.829Z,15.90
2018-05-10T01:33:06.817Z,15.10
2018-05-10T01:34:06.794Z,14.80
2018-05-10T01:35:06.787Z,14.90
2018-05-10T01:36:06.756Z,15.50
2018-05-10T01:37:06.738Z,15.60
2018-05-10T01:38:06.721Z,16.30
2018-05-10T01:39:06.706Z,15.90
2018-05-10T01:40:06.697Z,16.40
2018-05-10T01:41:06.669Z,16.80
2018-05-10T01:42:06.651Z,16.60
2018-05-10T01:43:06.634Z,18.20
2018-05-10T01:44:06.618Z,18.20
2018-05-10T01:45:06.613Z,20.20
2018-05-10T01:46:06.581Z,19.90
2018-05-10T01:47:06.569Z,18.60
2018-05-10T01:48:06.548Z,20.00
2018-05-10T01:49:06.533Z,20.80
2018-05-10T01:50:06.512Z,21.00
2018-05-10T01:51:06.505Z,20.80
2018-05-10T01:52:06.478Z,21.20
2018-05-10T01:53:06.459Z,20.50
2018-05-10T01:54:06.442Z,20.60
2018-05-10T01:55:06.426Z,21.10
2018-05-10T01:56:06.417Z,20.50
2018-05-10T01:57:06.389Z,19.80
2018-05-10T01:58:06.373Z,19.70
2018-05-10T01:59:06.355Z,21.10
2018-05-10T02:00:06.337Z,21.20
2018-05-10T02:01:06.354Z,21.80
2018-05-10T02:02:06.303Z,20.50
2018-05-10T02:03:06.285Z,20.40
2018-05-10T02:04:06.273Z,21.10
2018-05-10T02:05:06.253Z,21.20
2018-05-10T02:06:06.232Z,22.10
2018-05-10T02:07:06.225Z,21.90
2018-05-10T02:08:06.201Z,21.60
2018-05-10T02:09:06.182Z,20.90
2018-05-10T02:10:06.163Z,21.60
2018-05-10T02:11:06.147Z,22.00
2018-05-10T02:12:06.144Z,22.80
2018-05-10T02:13:06.115Z,21.80
2018-05-10T02:14:06.095Z,23.10
2018-05-10T02:15:06.078Z,23.60
2018-05-10T02:16:06.063Z,23.80
2018-05-10T02:17:06.061Z,24.10
2018-05-10T02:18:06.026Z,25.10
2018-05-10T02:19:06.008Z,24.00
2018-05-10T02:20:05.994Z,23.20
2018-05-10T02:21:05.973Z,24.70
2018-05-10T02:22:05.958Z,24.60
2018-05-10T02:23:05.950Z,25.10
2018-05-10T02:24:05.923Z,25.60
2018-05-10T02:25:05.907Z,25.20
2018-05-10T02:26:05.887Z,24.40
2018-05-10T02:27:05.871Z,25.00
2018-05-10T02:28:05.867Z,23.80
2018-05-10T02:29:05.836Z,24.40
2018-05-10T02:30:05.820Z,24.50
2018-05-10T02:31:05.803Z,23.50
2018-05-10T02:32:05.792Z,25.50
2018-05-10T02:33:05.775Z,25.90
2018-05-10T02:34:05.764Z,25.00
2018-05-10T02:35:05.734Z,24.90
2018-05-10T02:36:05.716Z,25.70
2018-05-10T02:37:05.697Z,25.60
2018-05-10T02:38:05.681Z,26.40
2018-05-10T02:39:05.673Z,26.50
2018-05-10T02:40:05.648Z,25.90
2018-05-10T02:41:05.631Z,26.20
2018-05-10T02:42:05.611Z,25.90
2018-05-10T02:43:05.598Z,25.20
2018-05-10T02:44:05.596Z,26.20
2018-05-10T02:45:05.659Z,23.90
2018-05-10T02:46:05.544Z,25.70
2018-05-10T02:47:05.528Z,24.30
2018-05-10T02:48:05.509Z,25.70
2018-05-10T02:49:05.505Z,26.20
2018-05-10T02:50:05.474Z,23.70
2018-05-10T02:51:05.458Z,24.00
2018-05-10T02:52:05.442Z,24.50
2018-05-10T02:53:05.421Z,22.80
2018-05-10T02:54:05.410Z,24.30
2018-05-10T02:55:05.401Z,25.20
2018-05-10T02:56:05.377Z,21.40
2018-05-10T02:57:05.355Z,23.90
2018-05-10T02:58:05.336Z,25.10
2018-05-10T02:59:05.322Z,24.20
2018-05-10T03:00:05.321Z,23.10
2018-05-10T03:01:05.285Z,24.40
2018-05-10T03:02:05.269Z,23.20
2018-05-10T03:03:05.252Z,23.50
2018-05-10T03:04:05.236Z,23.80
2018-05-10T03:05:05.217Z,23.40
2018-05-10T03:06:05.209Z,22.90
2018-05-10T03:07:05.184Z,22.40
2018-05-10T03:08:05.172Z,20.60
2018-05-10T03:09:05.149Z,22.10
2018-05-10T03:10:05.133Z,24.00
2018-05-10T03:11:05.123Z,24.30
2018-05-10T03:12:05.101Z,23.60
2018-05-10T03:13:05.081Z,23.50
2018-05-10T03:14:05.062Z,20.60
2018-05-10T03:15:05.049Z,23.00
2018-05-10T03:16:05.038Z,22.50
2018-05-10T03:17:05.012Z,25.10
2018-05-10T03:18:04.993Z,23.00
2018-05-10T03:19:04.975Z,23.70
2018-05-10T03:20:04.958Z,23.60
2018-05-10T03:21:04.957Z,22.80
2018-05-10T03:22:04.924Z,23.80
2018-05-10T03:23:04.907Z,23.80
2018-05-10T03:24:04.890Z,23.90
2018-05-10T03:25:04.873Z,22.80
2018-05-10T03:26:04.857Z,22.90
2018-05-10T03:27:04.849Z,23.60
2018-05-10T03:28:04.823Z,22.20
2018-05-10T03:29:04.804Z,22.20
2018-05-10T03:30:04.787Z,24.10
2018-05-10T03:31:04.778Z,22.70
2018-05-10T03:32:04.769Z,22.90
2018-05-10T03:33:04.735Z,24.20
2018-05-10T03:34:04.718Z,22.80
2018-05-10T03:35:04.702Z,22.60
2018-05-10T03:36:04.691Z,23.20
2018-05-10T03:37:04.667Z,22.00
2018-05-10T03:38:04.661Z,22.20
2018-05-10T03:39:04.633Z,22.40
2018-05-10T03:40:04.616Z,22.30
2018-05-10T03:41:04.598Z,20.00
2018-05-10T03:42:04.582Z,22.20
2018-05-10T03:43:04.574Z,21.20
2018-05-10T03:44:04.546Z,22.30
2018-05-10T03:45:04.532Z,22.10
2018-05-10T03:46:04.518Z,20.40
2018-05-10T03:47:04.496Z,19.20
2018-05-10T03:48:04.492Z,21.60
2018-05-10T03:49:04.463Z,22.30
2018-05-10T03:50:04.444Z,18.00
2018-05-10T03:51:04.429Z,20.60
2018-05-10T03:52:04.409Z,21.10
2018-05-10T03:53:04.391Z,16.00
2018-05-10T03:54:04.383Z,21.60
2018-05-10T03:55:04.357Z,20.00
2018-05-10T03:56:04.341Z,20.20
2018-05-10T03:57:04.322Z,19.30
2018-05-10T03:58:04.310Z,20.90
2018-05-10T03:59:04.298Z,21.10
2018-05-10T04:00:04.272Z,20.80
2018-05-10T04:01:04.253Z,20.60
2018-05-10T04:02:04.237Z,12.90
2018-05-10T04:03:04.221Z,16.60
2018-05-10T04:04:04.212Z,19.20
2018-05-10T04:05:04.185Z,21.60
2018-05-10T04:06:04.183Z,19.10
2018-05-10T04:07:04.154Z,20.60
2018-05-10T04:08:04.136Z,17.90
2018-05-10T04:09:04.126Z,21.80
2018-05-10T04:10:04.103Z,21.20
2018-05-10T04:11:04.083Z,21.50
2018-05-10T04:12:04.066Z,21.60
2018-05-10T04:13:04.047Z,21.30
2018-05-10T04:14:04.040Z,19.70
2018-05-10T04:15:04.025Z,21.90
2018-05-10T04:16:04.000Z,21.70
2018-05-10T04:17:03.978Z,20.90
2018-05-10T04:18:03.960Z,21.20
2018-05-10T04:19:03.946Z,19.80
2018-05-10T04:20:03.937Z,18.40
2018-05-10T04:21:03.909Z,22.30
2018-05-10T04:22:03.893Z,22.00
2018-05-10T04:23:03.879Z,19.80
2018-05-10T04:24:03.860Z,18.70
2018-05-10T04:25:03.849Z,19.50
2018-05-10T04:26:03.823Z,20.20
2018-05-10T04:27:03.807Z,21.40
2018-05-10T04:28:03.789Z,22.60
2018-05-10T04:29:03.774Z,20.30
2018-05-10T04:30:03.763Z,22.50
2018-05-10T04:31:03.737Z,23.50
2018-05-10T04:32:03.720Z,25.00
2018-05-10T04:33:03.709Z,23.20
2018-05-10T04:34:03.686Z,21.30
2018-05-10T04:35:03.681Z,23.30
2018-05-10T04:36:03.652Z,21.30
2018-05-10T04:37:03.639Z,23.50
2018-05-10T04:38:03.619Z,17.90
2018-05-10T04:39:03.599Z,23.00
2018-05-10T04:40:03.867Z,21.60
2018-05-10T04:41:03.563Z,18.60
2018-05-10T04:42:03.548Z,23.20
2018-05-10T04:43:03.534Z,21.50
2018-05-10T04:44:03.514Z,24.30
2018-05-10T04:45:03.497Z,23.10
2018-05-10T04:46:03.495Z,25.70
2018-05-10T04:47:03.461Z,23.80
2018-05-10T04:48:03.448Z,24.20
2018-05-10T04:49:03.485Z,23.50
2018-05-10T04:50:03.415Z,23.80
2018-05-10T04:51:03.392Z,23.80
2018-05-10T04:52:03.385Z,22.40
2018-05-10T04:53:03.359Z,21.80
2018-05-10T04:54:03.339Z,22.80
2018-05-10T04:55:03.323Z,23.10
2018-05-10T04:56:03.308Z,23.70
2018-05-10T04:57:03.296Z,24.00
2018-05-10T04:58:03.272Z,23.70
2018-05-10T04:59:03.257Z,24.20
2018-05-10T05:00:03.239Z,22.80
2018-05-10T05:01:03.222Z,24.60
2018-05-10T05:02:03.216Z,19.40
2018-05-10T05:03:03.186Z,23.50
2018-05-10T05:04:03.169Z,23.00
2018-05-10T05:05:03.153Z,22.30
2018-05-10T05:06:03.135Z,22.40
2018-05-10T05:07:03.118Z,23.20
2018-05-10T05:08:03.108Z,23.00
2018-05-10T05:09:03.173Z,24.40
2018-05-10T05:10:03.064Z,20.60
2018-05-10T05:11:03.051Z,21.90
2018-05-10T05:12:03.076Z,21.50
2018-05-10T05:13:03.034Z,23.20
2018-05-10T05:14:02.995Z,22.40
2018-05-10T05:15:02.986Z,22.90
2018-05-10T05:16:02.961Z,21.90
2018-05-10T05:17:02.945Z,21.80
2018-05-10T05:18:03.189Z,19.30
2018-05-10T05:19:02.909Z,23.40
2018-05-10T05:20:02.893Z,21.80
2018-05-10T05:21:02.878Z,22.00
2018-05-10T05:22:02.858Z,19.90
2018-05-10T05:23:02.842Z,21.20
2018-05-10T05:24:02.831Z,17.40
2018-05-10T05:25:02.809Z,19.40
2018-05-10T05:26:02.786Z,21.30
2018-05-10T05:27:02.769Z,20.70
2018-05-10T05:28:02.752Z,20.90
2018-05-10T05:29:02.746Z,19.20
2018-05-10T05:30:02.719Z,18.50
2018-05-10T05:31:02.699Z,20.60
2018-05-10T05:32:02.683Z,20.20
2018-05-10T05:33:02.664Z,20.50
2018-05-10T05:34:02.663Z,14.40
2018-05-10T05:35:02.629Z,15.60
2018-05-10T05:36:02.616Z,16.40
2018-05-10T05:37:02.596Z,19.10
2018-05-10T05:38:02.580Z,18.70
2018-05-10T05:39:02.562Z,19.00
2018-05-10T05:40:02.554Z,18.90
2018-05-10T05:41:02.558Z,18.70
2018-05-10T05:42:02.510Z,18.50
2018-05-10T05:43:02.494Z,16.80
2018-05-10T05:44:02.477Z,17.90
2018-05-10T05:45:02.493Z,15.50
2018-05-10T05:46:02.442Z,16.00
2018-05-10T05:47:02.419Z,15.70
2018-05-10T05:48:02.408Z,15.40
2018-05-10T05:49:02.390Z,15.00
2018-05-10T05:50:02.373Z,15.00
2018-05-10T05:51:02.364Z,14.60
2018-05-10T05:52:02.340Z,15.20
2018-05-10T05:53:02.319Z,13.20
2018-05-10T05:54:02.301Z,14.50
2018-05-10T05:55:02.353Z,11.20
2018-05-10T05:56:02.277Z,13.00
2018-05-10T05:57:02.250Z,12.70
2018-05-10T05:58:02.233Z,13.00
2018-05-10T05:59:02.224Z,12.70
2018-05-10T06:00:02.199Z,12.90
2018-05-10T06:01:02.190Z,12.30
2018-05-10T06:02:02.163Z,12.10
2018-05-10T06:03:02.147Z,11.80
2018-05-10T06:04:02.129Z,11.80
2018-05-10T06:05:02.115Z,10.00
2018-05-10T06:06:02.125Z,10.40
2018-05-10T06:07:02.077Z,12.30
2018-05-10T06:08:02.060Z,10.90
2018-05-10T06:09:02.042Z,13.90
2018-05-10T06:10:02.027Z,12.30
2018-05-10T06:11:02.010Z,12.50
2018-05-10T06:12:01.998Z,13.30
2018-05-10T06:13:01.973Z,11.80
2018-05-10T06:14:01.956Z,14.10
2018-05-10T06:15:01.940Z,12.30
2018-05-10T06:16:01.939Z,9.50
2018-05-10T06:17:02.190Z,14.50
2018-05-10T06:18:01.887Z,13.70
2018-05-10T06:19:01.869Z,15.20
2018-05-10T06:20:01.851Z,14.00
2018-05-10T06:21:01.836Z,16.10
2018-05-10T06:22:01.835Z,16.40
2018-05-10T06:23:01.812Z,15.80
2018-05-10T06:24:01.783Z,16.90
2018-05-10T06:25:01.790Z,14.50
2018-05-10T06:26:01.752Z,17.00
2018-05-10T06:27:01.730Z,16.40
2018-05-10T06:28:01.727Z,16.80
2018-05-10T06:29:01.700Z,15.50
2018-05-10T06:30:01.682Z,17.50
2018-05-10T06:31:01.662Z,18.30
2018-05-10T06:32:01.645Z,18.50
2018-05-10T06:33:01.638Z,18.30
2018-05-10T06:34:01.677Z,18.30
2018-05-10T06:35:01.599Z,18.60
2018-05-10T06:36:01.579Z,18.50
2018-05-10T06:37:01.561Z,20.30
2018-05-10T06:38:01.558Z,19.60
2018-05-10T06:39:01.529Z,15.70
2018-05-10T06:40:01.509Z,20.20
2018-05-10T06:41:01.491Z,21.80
2018-05-10T06:42:01.474Z,21.40
2018-05-10T06:43:01.466Z,20.30
2018-05-10T06:44:01.445Z,21.70
2018-05-10T06:45:01.424Z,21.20
2018-05-10T06:46:01.406Z,20.80
2018-05-10T06:47:01.389Z,19.10
2018-05-10T06:48:01.380Z,19.90
2018-05-10T06:49:01.359Z,20.20
2018-05-10T06:50:01.337Z,19.40
2018-05-10T06:51:01.321Z,20.20
2018-05-10T06:52:01.303Z,21.80
2018-05-10T06:53:01.301Z,15.70
2018-05-10T06:54:01.268Z,21.30
2018-05-10T06:55:01.250Z,21.80
2018-05-10T06:56:01.235Z,21.00
2018-05-10T06:57:01.223Z,21.50
2018-05-10T06:58:01.201Z,23.30
2018-05-10T06:59:01.193Z,21.30
2018-05-10T07:00:01.168Z,22.40
2018-05-10T07:01:01.151Z,22.10
2018-05-10T07:02:01.136Z,22.00
2018-05-10T07:03:01.119Z,22.40
2018-05-10T07:04:01.109Z,22.30
2018-05-10T07:05:01.082Z,21.50
2018-05-10T07:06:01.074Z,21.60
2018-05-10T07:07:01.048Z,20.80
2018-05-10T07:08:01.032Z,22.20
2018-05-10T07:09:01.033Z,22.20
2018-05-10T07:10:01.150Z,20.50
2018-05-10T07:11:00.984Z,21.80
2018-05-10T07:12:00.966Z,19.70
2018-05-10T07:13:00.950Z,20.30
2018-05-10T07:14:00.933Z,21.20
2018-05-10T07:15:00.934Z,22.60
2018-05-10T07:16:00.906Z,22.10
2018-05-10T07:17:00.886Z,21.00
2018-05-10T07:18:00.866Z,20.70
2018-05-10T07:19:00.854Z,19.60
2018-05-10T07:20:00.846Z,21.50
2018-05-10T07:21:00.815Z,20.10
2018-05-10T07:22:00.801Z,21.10
2018-05-10T07:23:00.785Z,20.10
2018-05-10T07:24:00.769Z,20.90
2018-05-10T07:25:00.772Z,20.30
2018-05-10T07:26:00.767Z,18.60
2018-05-10T07:27:00.720Z,20.40
2018-05-10T07:28:00.704Z,20.30
2018-05-10T07:29:00.688Z,19.50
2018-05-10T07:30:00.672Z,17.80
2018-05-10T07:31:00.658Z,20.60
2018-05-10T07:32:00.653Z,18.00
2018-05-10T07:33:00.639Z,19.10
2018-05-10T07:34:00.607Z,19.00
2018-05-10T07:35:00.592Z,20.40
2018-05-10T07:36:00.614Z,20.10
2018-05-10T07:37:00.568Z,20.20
2018-05-10T07:38:00.542Z,19.50
2018-05-10T07:39:00.525Z,21.00
2018-05-10T07:40:00.518Z,21.30
2018-05-10T07:41:00.496Z,21.10
2018-05-10T07:42:00.498Z,20.80
2018-05-10T07:43:00.462Z,20.50
2018-05-10T07:44:00.449Z,21.30
2018-05-10T07:45:00.441Z,19.80
2018-05-10T07:46:00.416Z,20.30
2018-05-10T07:47:00.401Z,20.90
2018-05-10T07:48:00.661Z,21.00
2018-05-10T07:49:00.371Z,21.10
2018-05-10T07:50:00.354Z,21.80
2018-05-10T07:51:00.337Z,20.00
2018-05-10T07:52:00.320Z,20.60
2018-05-10T07:53:00.306Z,19.90
2018-05-10T07:54:00.300Z,21.60
2018-05-10T07:55:00.274Z,22.30
2018-05-10T07:56:00.257Z,21.80
2018-05-10T07:57:00.242Z,21.40
2018-05-10T07:58:00.225Z,22.40
2018-05-10T07:59:00.222Z,21.50
2018-05-10T08:00:00.201Z,22.30
2018-05-10T08:01:00.181Z,22.90
2018-05-10T08:02:00.163Z,22.30
2018-05-10T08:03:00.146Z,22.70
2018-05-10T08:04:00.143Z,22.70
2018-05-10T08:05:00.110Z,21.50
2018-05-10T08:06:00.098Z,22.40
2018-05-10T08:07:00.088Z,21.10
2018-05-10T08:08:00.068Z,23.70
2018-05-10T08:09:00.048Z,21.80
2018-05-10T08:10:00.126Z,21.60
2018-05-10T08:11:00.021Z,21.40
2018-05-10T08:12:00.021Z,23.20
2018-05-10T08:12:59.987Z,20.90
2018-05-10T08:13:59.973Z,22.60
2018-05-10T08:14:59.956Z,22.90
2018-05-10T08:15:59.955Z,22.20
2018-05-10T08:16:59.966Z,23.60
2018-05-10T08:17:59.910Z,23.40
2018-05-10T08:18:59.894Z,23.40
2018-05-10T08:19:59.877Z,22.70
2018-05-10T08:20:59.860Z,23.80
2018-05-10T08:21:59.856Z,24.40
2018-05-10T08:22:59.828Z,23.80
2018-05-10T08:23:59.813Z,23.80
2018-05-10T08:24:59.796Z,22.70
2018-05-10T08:25:59.780Z,22.30
2018-05-10T08:26:59.775Z,23.40
2018-05-10T08:27:59.751Z,22.70
2018-05-10T08:28:59.731Z,22.90
2018-05-10T08:29:59.720Z,23.10
2018-05-10T08:30:59.703Z,22.50
2018-05-10T08:31:59.699Z,22.80
2018-05-10T08:32:59.668Z,21.50
2018-05-10T08:33:59.655Z,21.70
2018-05-10T08:34:59.637Z,21.80
2018-05-10T08:35:59.624Z,22.30
2018-05-10T08:36:59.604Z,21.60
2018-05-10T08:37:59.603Z,21.50
2018-05-10T08:38:59.576Z,21.50
2018-05-10T08:39:59.556Z,21.20
2018-05-10T08:40:59.540Z,21.20
2018-05-10T08:41:59.523Z,21.00
2018-05-10T08:42:59.521Z,20.70
2018-05-10T08:43:59.492Z,20.60
2018-05-10T08:44:59.574Z,20.30
2018-05-10T08:45:59.459Z,20.70
2018-05-10T08:46:59.442Z,19.90
2018-05-10T08:47:59.429Z,19.80
2018-05-10T08:48:59.418Z,19.90
2018-05-10T08:49:59.395Z,19.70
2018-05-10T08:50:59.378Z,19.60
2018-05-10T08:51:59.463Z,19.00
2018-05-10T08:52:59.349Z,19.70
2018-05-10T08:53:59.337Z,19.10
2018-05-10T08:54:59.316Z,19.10
2018-05-10T08:55:59.297Z,19.70
2018-05-10T08:56:59.281Z,20.50
2018-05-10T08:57:59.261Z,19.20
2018-05-10T08:58:59.272Z,17.60
2018-05-10T08:59:59.262Z,19.30
2018-05-10T09:00:59.217Z,19.50
2018-05-10T09:01:59.198Z,18.10
2018-05-10T09:02:59.183Z,18.10
2018-05-10T09:03:59.185Z,19.20
2018-05-10T09:04:59.149Z,19.80
2018-05-10T09:05:59.133Z,18.20
2018-05-10T09:06:59.120Z,18.70
2018-05-10T09:07:59.102Z,18.10
2018-05-10T09:08:59.087Z,18.50
2018-05-10T09:09:59.101Z,18.80
2018-05-10T09:10:59.053Z,19.80
2018-05-10T09:11:59.038Z,18.70
2018-05-10T09:12:59.021Z,18.60
2018-05-10T09:13:59.004Z,17.50
2018-05-10T09:14:58.991Z,18.00
2018-05-10T09:15:58.986Z,17.60
2018-05-10T09:16:58.964Z,18.20
2018-05-10T09:17:58.940Z,17.70
2018-05-10T09:18:58.924Z,18.60
2018-05-10T09:19:58.907Z,19.00
2018-05-10T09:20:58.902Z,18.60
2018-05-10T09:21:58.875Z,19.00
2018-05-10T09:22:58.859Z,18.60
2018-05-10T09:23:58.842Z,19.70
2018-05-10T09:24:58.827Z,19.40
2018-05-10T09:25:58.841Z,19.60
2018-05-10T09:26:58.795Z,18.20
2018-05-10T09:27:58.780Z,19.30
2018-05-10T09:28:58.762Z,18.30
2018-05-10T09:29:58.748Z,18.20
2018-05-10T09:30:58.741Z,18.30
2018-05-10T09:31:58.720Z,18.90
2018-05-10T09:32:58.701Z,19.40
2018-05-10T09:33:58.685Z,19.50
2018-05-10T09:34:58.669Z,19.50
2018-05-10T09:35:58.663Z,19.00
2018-05-10T09:36:58.638Z,19.70
2018-05-10T09:37:58.622Z,19.40
2018-05-10T09:38:58.700Z,19.70
2018-05-10T09:39:58.594Z,19.40
2018-05-10T09:40:58.594Z,18.70
2018-05-10T09:41:58.561Z,19.00
2018-05-10T09:42:58.543Z,18.60
2018-05-10T09:43:58.531Z,18.00
2018-05-10T09:44:58.567Z,16.00
2018-05-10T09:45:58.497Z,14.30
2018-05-10T09:46:58.492Z,14.00
2018-05-10T09:47:58.467Z,13.20
2018-05-10T09:48:58.450Z,12.10
2018-05-10T09:49:58.435Z,14.00
2018-05-10T09:50:58.422Z,13.30
2018-05-10T09:51:58.416Z,12.90
2018-05-10T09:52:58.387Z,12.80
2018-05-10T09:53:58.372Z,13.70
2018-05-10T09:54:58.357Z,13.10
2018-05-10T09:55:58.341Z,12.50
2018-05-10T09:56:58.353Z,11.70
2018-05-10T09:57:58.349Z,10.70
2018-05-10T09:58:58.306Z,10.80
2018-05-10T09:59:58.314Z,10.00
2018-05-10T10:00:58.261Z,9.00
2018-05-10T10:01:58.245Z,8.30
2018-05-10T10:02:58.241Z,8.40
2018-05-10T10:03:58.218Z,9.00
2018-05-10T10:04:58.199Z,8.50
2018-05-10T10:05:58.183Z,8.00
2018-05-10T10:06:58.165Z,7.20
2018-05-10T10:07:58.167Z,6.40
2018-05-10T10:08:58.134Z,5.20
2018-05-10T10:09:58.124Z,4.70
2018-05-10T10:10:58.104Z,4.70
2018-05-10T10:11:58.089Z,4.50
2018-05-10T10:12:58.072Z,3.40
2018-05-10T10:13:58.075Z,4.00
2018-05-10T10:14:58.041Z,3.70
2018-05-10T10:15:58.025Z,3.70
2018-05-10T10:16:58.007Z,4.10
2018-05-10T10:17:57.993Z,3.60
2018-05-10T10:18:57.988Z,3.80
2018-05-10T10:19:57.962Z,3.60
2018-05-10T10:20:57.944Z,2.70
2018-05-10T10:21:57.929Z,3.80
2018-05-10T10:22:57.913Z,3.20
2018-05-10T10:23:57.908Z,3.50
2018-05-10T10:24:57.881Z,4.50
2018-05-10T10:25:57.869Z,3.70
2018-05-10T10:26:57.848Z,3.40
2018-05-10T10:27:57.835Z,3.90
2018-05-10T10:28:57.829Z,3.60
2018-05-10T10:29:57.801Z,3.70
